sensor_id;sensor_type;location;lat;lon;timestamp;P1;durP1;ratioP1;P2;durP2;ratioP2
817;SDS011;391;51.052;6.954;2023-08-21T00:01:06;6.93;;;5.60;;
817;SDS011;391;51.052;6.954;2023-08-21T00:03:10;6.80;;;5.07;;
817;SDS011;391;51.052;6.954;2023-08-21T00:05:15;6.90;;;5.70;;
817;SDS011;391;51.052;6.954;2023-08-21T00:07:19;6.53;;;5.83;;
817;SDS011;391;51.052;6.954;2023-08-21T00:09:23;6.67;;;6.00;;
817;SDS011;391;51.052;6.954;2023-08-21T00:11:26;7.30;;;6.60;;
817;SDS011;391;51.052;6.954;2023-08-21T00:13:30;5.60;;;5.20;;
817;SDS011;391;51.052;6.954;2023-08-21T00:15:33;5.80;;;4.97;;
817;SDS011;391;51.052;6.954;2023-08-21T00:17:37;8.90;;;6.30;;
817;SDS011;391;51.052;6.954;2023-08-21T00:19:41;6.70;;;5.70;;
817;SDS011;391;51.052;6.954;2023-08-21T00:21:46;6.27;;;5.77;;
817;SDS011;391;51.052;6.954;2023-08-21T00:23:50;6.23;;;5.63;;
817;SDS011;391;51.052;6.954;2023-08-21T00:25:53;6.03;;;5.50;;
817;SDS011;391;51.052;6.954;2023-08-21T00:27:57;6.57;;;6.10;;
817;SDS011;391;51.052;6.954;2023-08-21T00:30:02;6.77;;;6.00;;
817;SDS011;391;51.052;6.954;2023-08-21T00:32:06;6.37;;;5.87;;
817;SDS011;391;51.052;6.954;2023-08-21T00:34:10;6.40;;;5.80;;
817;SDS011;391;51.052;6.954;2023-08-21T00:36:14;6.73;;;6.27;;
817;SDS011;391;51.052;6.954;2023-08-21T00:38:19;5.47;;;4.97;;
817;SDS011;391;51.052;6.954;2023-08-21T00:40:23;6.50;;;5.50;;
817;SDS011;391;51.052;6.954;2023-08-21T00:42:27;6.43;;;5.83;;
817;SDS011;391;51.052;6.954;2023-08-21T00:44:31;6.50;;;5.80;;
817;SDS011;391;51.052;6.954;2023-08-21T00:46:34;5.17;;;4.77;;
817;SDS011;391;51.052;6.954;2023-08-21T00:48:38;5.27;;;4.73;;
817;SDS011;391;51.052;6.954;2023-08-21T00:50:41;6.10;;;5.43;;
817;SDS011;391;51.052;6.954;2023-08-21T00:52:46;6.90;;;5.83;;
817;SDS011;391;51.052;6.954;2023-08-21T00:54:52;6.07;;;5.57;;
817;SDS011;391;51.052;6.954;2023-08-21T00:56:56;6.53;;;5.97;;
817;SDS011;391;51.052;6.954;2023-08-21T00:59:00;5.83;;;5.43;;
817;SDS011;391;51.052;6.954;2023-08-21T01:01:03;7.40;;;6.70;;
817;SDS011;391;51.052;6.954;2023-08-21T01:03:07;5.93;;;5.43;;
817;SDS011;391;51.052;6.954;2023-08-21T01:05:11;6.83;;;6.17;;
817;SDS011;391;51.052;6.954;2023-08-21T01:07:15;9.47;;;7.23;;
817;SDS011;391;51.052;6.954;2023-08-21T01:09:21;8.77;;;7.93;;
817;SDS011;391;51.052;6.954;2023-08-21T01:11:34;6.53;;;5.93;;
817;SDS011;391;51.052;6.954;2023-08-21T01:13:44;5.90;;;5.47;;
817;SDS011;391;51.052;6.954;2023-08-21T01:15:54;7.13;;;6.53;;
817;SDS011;391;51.052;6.954;2023-08-21T01:18:00;7.27;;;6.60;;
817;SDS011;391;51.052;6.954;2023-08-21T01:20:08;6.83;;;6.23;;
817;SDS011;391;51.052;6.954;2023-08-21T01:22:13;8.97;;;8.20;;
817;SDS011;391;51.052;6.954;2023-08-21T01:24:20;7.50;;;6.90;;
817;SDS011;391;51.052;6.954;2023-08-21T01:26:23;7.40;;;6.70;;
817;SDS011;391;51.052;6.954;2023-08-21T01:28:27;7.03;;;6.53;;
817;SDS011;391;51.052;6.954;2023-08-21T01:30:32;6.67;;;6.00;;
817;SDS011;391;51.052;6.954;2023-08-21T01:32:41;6.83;;;6.17;;
817;SDS011;391;51.052;6.954;2023-08-21T01:34:51;7.87;;;6.40;;
817;SDS011;391;51.052;6.954;2023-08-21T01:36:57;6.67;;;6.03;;
817;SDS011;391;51.052;6.954;2023-08-21T01:39:00;7.20;;;6.60;;
817;SDS011;391;51.052;6.954;2023-08-21T01:41:07;7.10;;;6.03;;
817;SDS011;391;51.052;6.954;2023-08-21T01:43:10;7.63;;;7.00;;
817;SDS011;391;51.052;6.954;2023-08-21T01:45:14;6.50;;;5.90;;
817;SDS011;391;51.052;6.954;2023-08-21T01:47:17;7.27;;;6.60;;
817;SDS011;391;51.052;6.954;2023-08-21T01:49:21;7.13;;;6.40;;
817;SDS011;391;51.052;6.954;2023-08-21T01:51:24;6.43;;;5.60;;
817;SDS011;391;51.052;6.954;2023-08-21T01:53:28;9.67;;;8.63;;
817;SDS011;391;51.052;6.954;2023-08-21T01:55:32;7.93;;;5.60;;
817;SDS011;391;51.052;6.954;2023-08-21T01:57:36;6.60;;;5.87;;
817;SDS011;391;51.052;6.954;2023-08-21T01:59:41;5.77;;;5.17;;
817;SDS011;391;51.052;6.954;2023-08-21T02:01:46;8.13;;;5.63;;
817;SDS011;391;51.052;6.954;2023-08-21T02:03:49;6.00;;;5.60;;
817;SDS011;391;51.052;6.954;2023-08-21T02:05:55;5.97;;;5.37;;
817;SDS011;391;51.052;6.954;2023-08-21T02:08:00;5.97;;;5.47;;
817;SDS011;391;51.052;6.954;2023-08-21T02:10:04;5.67;;;5.00;;
817;SDS011;391;51.052;6.954;2023-08-21T02:12:08;6.67;;;5.03;;
817;SDS011;391;51.052;6.954;2023-08-21T02:14:16;5.57;;;4.97;;
817;SDS011;391;51.052;6.954;2023-08-21T02:16:21;6.60;;;5.97;;
817;SDS011;391;51.052;6.954;2023-08-21T02:18:29;7.37;;;5.57;;
817;SDS011;391;51.052;6.954;2023-08-21T02:20:32;6.90;;;6.40;;
817;SDS011;391;51.052;6.954;2023-08-21T02:22:36;7.57;;;6.57;;
817;SDS011;391;51.052;6.954;2023-08-21T02:24:40;6.73;;;6.13;;
817;SDS011;391;51.052;6.954;2023-08-21T02:26:43;6.53;;;5.73;;
817;SDS011;391;51.052;6.954;2023-08-21T02:28:47;6.70;;;5.17;;
817;SDS011;391;51.052;6.954;2023-08-21T02:30:53;6.17;;;5.70;;
817;SDS011;391;51.052;6.954;2023-08-21T02:32:56;6.00;;;5.60;;
817;SDS011;391;51.052;6.954;2023-08-21T02:35:00;8.63;;;6.53;;
817;SDS011;391;51.052;6.954;2023-08-21T02:37:03;6.13;;;5.63;;
817;SDS011;391;51.052;6.954;2023-08-21T02:39:07;6.73;;;6.10;;
817;SDS011;391;51.052;6.954;2023-08-21T02:41:11;9.90;;;6.80;;
817;SDS011;391;51.052;6.954;2023-08-21T02:43:17;7.00;;;6.50;;
817;SDS011;391;51.052;6.954;2023-08-21T02:45:22;8.80;;;7.17;;
817;SDS011;391;51.052;6.954;2023-08-21T02:47:28;9.60;;;6.20;;
817;SDS011;391;51.052;6.954;2023-08-21T02:49:31;8.90;;;6.90;;
817;SDS011;391;51.052;6.954;2023-08-21T02:51:34;6.87;;;6.27;;
817;SDS011;391;51.052;6.954;2023-08-21T02:53:39;13.27;;;6.83;;
817;SDS011;391;51.052;6.954;2023-08-21T02:55:42;7.03;;;6.33;;
817;SDS011;391;51.052;6.954;2023-08-21T02:57:47;6.50;;;5.90;;
817;SDS011;391;51.052;6.954;2023-08-21T02:59:51;7.60;;;6.40;;
817;SDS011;391;51.052;6.954;2023-08-21T03:01:54;6.60;;;6.10;;
817;SDS011;391;51.052;6.954;2023-08-21T03:03:59;7.00;;;6.50;;
817;SDS011;391;51.052;6.954;2023-08-21T03:06:03;7.73;;;6.43;;
817;SDS011;391;51.052;6.954;2023-08-21T03:08:06;6.67;;;6.17;;
817;SDS011;391;51.052;6.954;2023-08-21T03:10:10;7.67;;;6.00;;
817;SDS011;391;51.052;6.954;2023-08-21T03:12:14;7.17;;;6.13;;
817;SDS011;391;51.052;6.954;2023-08-21T03:14:17;7.70;;;5.80;;
817;SDS011;391;51.052;6.954;2023-08-21T03:16:21;6.73;;;6.13;;
817;SDS011;391;51.052;6.954;2023-08-21T03:18:24;6.00;;;5.50;;
817;SDS011;391;51.052;6.954;2023-08-21T03:20:29;7.40;;;6.83;;
817;SDS011;391;51.052;6.954;2023-08-21T03:22:32;7.30;;;6.50;;
817;SDS011;391;51.052;6.954;2023-08-21T03:24:36;13.00;;;9.53;;
817;SDS011;391;51.052;6.954;2023-08-21T03:26:40;6.83;;;6.20;;
817;SDS011;391;51.052;6.954;2023-08-21T03:28:43;7.13;;;6.53;;
817;SDS011;391;51.052;6.954;2023-08-21T03:30:47;8.63;;;6.50;;
817;SDS011;391;51.052;6.954;2023-08-21T03:32:51;8.13;;;7.50;;
817;SDS011;391;51.052;6.954;2023-08-21T03:34:56;6.50;;;5.90;;
817;SDS011;391;51.052;6.954;2023-08-21T03:37:01;9.10;;;7.67;;
817;SDS011;391;51.052;6.954;2023-08-21T03:39:08;10.13;;;6.80;;
817;SDS011;391;51.052;6.954;2023-08-21T03:41:17;6.27;;;5.67;;
817;SDS011;391;51.052;6.954;2023-08-21T03:43:20;6.93;;;6.07;;
817;SDS011;391;51.052;6.954;2023-08-21T03:45:24;7.10;;;6.50;;
817;SDS011;391;51.052;6.954;2023-08-21T03:47:29;8.90;;;6.80;;
817;SDS011;391;51.052;6.954;2023-08-21T03:49:38;6.17;;;5.57;;
817;SDS011;391;51.052;6.954;2023-08-21T03:51:42;6.07;;;5.57;;
817;SDS011;391;51.052;6.954;2023-08-21T03:53:46;6.40;;;5.80;;
817;SDS011;391;51.052;6.954;2023-08-21T03:55:50;7.43;;;5.83;;
817;SDS011;391;51.052;6.954;2023-08-21T03:57:54;6.43;;;5.80;;
817;SDS011;391;51.052;6.954;2023-08-21T03:59:57;14.23;;;13.13;;
817;SDS011;391;51.052;6.954;2023-08-21T04:02:01;9.73;;;8.97;;
817;SDS011;391;51.052;6.954;2023-08-21T04:04:05;8.53;;;6.97;;
817;SDS011;391;51.052;6.954;2023-08-21T04:06:09;7.40;;;6.73;;
817;SDS011;391;51.052;6.954;2023-08-21T04:08:12;7.60;;;6.93;;
817;SDS011;391;51.052;6.954;2023-08-21T04:10:17;6.70;;;6.07;;
817;SDS011;391;51.052;6.954;2023-08-21T04:12:21;6.70;;;5.97;;
817;SDS011;391;51.052;6.954;2023-08-21T04:14:30;6.90;;;6.40;;
817;SDS011;391;51.052;6.954;2023-08-21T04:16:34;6.33;;;5.73;;
817;SDS011;391;51.052;6.954;2023-08-21T04:18:38;8.10;;;5.70;;
817;SDS011;391;51.052;6.954;2023-08-21T04:20:47;6.93;;;6.27;;
817;SDS011;391;51.052;6.954;2023-08-21T04:22:51;6.80;;;6.20;;
817;SDS011;391;51.052;6.954;2023-08-21T04:24:54;7.37;;;6.77;;
817;SDS011;391;51.052;6.954;2023-08-21T04:26:59;12.17;;;9.77;;
817;SDS011;391;51.052;6.954;2023-08-21T04:29:03;24.23;;;20.57;;
817;SDS011;391;51.052;6.954;2023-08-21T04:31:06;9.70;;;8.80;;
817;SDS011;391;51.052;6.954;2023-08-21T04:33:11;7.50;;;6.80;;
817;SDS011;391;51.052;6.954;2023-08-21T04:35:14;8.20;;;7.40;;
817;SDS011;391;51.052;6.954;2023-08-21T04:37:18;8.00;;;7.20;;
817;SDS011;391;51.052;6.954;2023-08-21T04:39:23;7.00;;;6.40;;
817;SDS011;391;51.052;6.954;2023-08-21T04:41:28;7.13;;;6.50;;
817;SDS011;391;51.052;6.954;2023-08-21T04:43:34;7.73;;;6.87;;
817;SDS011;391;51.052;6.954;2023-08-21T04:45:38;7.27;;;6.67;;
817;SDS011;391;51.052;6.954;2023-08-21T04:47:50;6.67;;;6.07;;
817;SDS011;391;51.052;6.954;2023-08-21T04:49:57;6.80;;;6.27;;
817;SDS011;391;51.052;6.954;2023-08-21T04:52:03;8.13;;;6.90;;
817;SDS011;391;51.052;6.954;2023-08-21T04:54:07;7.60;;;6.80;;
817;SDS011;391;51.052;6.954;2023-08-21T04:56:12;9.10;;;7.67;;
817;SDS011;391;51.052;6.954;2023-08-21T04:58:16;8.50;;;6.80;;
817;SDS011;391;51.052;6.954;2023-08-21T05:00:20;12.13;;;6.40;;
817;SDS011;391;51.052;6.954;2023-08-21T05:02:24;7.97;;;7.30;;
817;SDS011;391;51.052;6.954;2023-08-21T05:04:28;7.07;;;6.37;;
817;SDS011;391;51.052;6.954;2023-08-21T05:06:32;7.63;;;6.93;;
817;SDS011;391;51.052;6.954;2023-08-21T05:08:38;10.50;;;9.60;;
817;SDS011;391;51.052;6.954;2023-08-21T05:10:43;14.90;;;13.67;;
817;SDS011;391;51.052;6.954;2023-08-21T05:12:47;7.03;;;6.40;;
817;SDS011;391;51.052;6.954;2023-08-21T05:14:52;7.77;;;6.10;;
817;SDS011;391;51.052;6.954;2023-08-21T05:16:58;7.07;;;6.50;;
817;SDS011;391;51.052;6.954;2023-08-21T05:19:01;8.00;;;7.23;;
817;SDS011;391;51.052;6.954;2023-08-21T05:21:08;6.70;;;6.10;;
817;SDS011;391;51.052;6.954;2023-08-21T05:23:12;8.63;;;7.57;;
817;SDS011;391;51.052;6.954;2023-08-21T05:25:14;8.03;;;7.33;;
817;SDS011;391;51.052;6.954;2023-08-21T05:27:18;6.90;;;6.27;;
817;SDS011;391;51.052;6.954;2023-08-21T05:29:22;6.83;;;6.23;;
817;SDS011;391;51.052;6.954;2023-08-21T05:31:25;6.93;;;6.33;;
817;SDS011;391;51.052;6.954;2023-08-21T05:33:31;6.83;;;6.23;;
817;SDS011;391;51.052;6.954;2023-08-21T05:35:34;10.07;;;7.40;;
817;SDS011;391;51.052;6.954;2023-08-21T05:37:39;12.87;;;6.07;;
817;SDS011;391;51.052;6.954;2023-08-21T05:39:43;7.97;;;7.27;;
817;SDS011;391;51.052;6.954;2023-08-21T05:41:47;7.90;;;6.70;;
817;SDS011;391;51.052;6.954;2023-08-21T05:43:51;6.20;;;5.60;;
817;SDS011;391;51.052;6.954;2023-08-21T05:45:58;7.13;;;6.43;;
817;SDS011;391;51.052;6.954;2023-08-21T05:48:03;8.67;;;6.43;;
817;SDS011;391;51.052;6.954;2023-08-21T05:50:09;8.17;;;7.40;;
817;SDS011;391;51.052;6.954;2023-08-21T05:52:13;6.83;;;6.23;;
817;SDS011;391;51.052;6.954;2023-08-21T05:54:16;7.43;;;6.40;;
817;SDS011;391;51.052;6.954;2023-08-21T05:56:20;8.53;;;7.67;;
817;SDS011;391;51.052;6.954;2023-08-21T05:58:23;10.63;;;7.20;;
817;SDS011;391;51.052;6.954;2023-08-21T06:00:32;9.37;;;7.30;;
817;SDS011;391;51.052;6.954;2023-08-21T06:02:38;8.67;;;7.87;;
817;SDS011;391;51.052;6.954;2023-08-21T06:04:42;8.47;;;7.67;;
817;SDS011;391;51.052;6.954;2023-08-21T06:06:48;6.87;;;6.17;;
817;SDS011;391;51.052;6.954;2023-08-21T06:08:50;9.90;;;7.13;;
817;SDS011;391;51.052;6.954;2023-08-21T06:10:54;7.47;;;6.27;;
817;SDS011;391;51.052;6.954;2023-08-21T06:12:58;7.60;;;6.90;;
817;SDS011;391;51.052;6.954;2023-08-21T06:15:01;8.10;;;7.30;;
817;SDS011;391;51.052;6.954;2023-08-21T06:17:05;7.13;;;6.50;;
817;SDS011;391;51.052;6.954;2023-08-21T06:19:09;8.17;;;7.40;;
817;SDS011;391;51.052;6.954;2023-08-21T06:21:12;8.43;;;7.73;;
817;SDS011;391;51.052;6.954;2023-08-21T06:23:17;9.27;;;8.43;;
817;SDS011;391;51.052;6.954;2023-08-21T06:25:21;8.90;;;8.10;;
817;SDS011;391;51.052;6.954;2023-08-21T06:27:24;13.90;;;8.00;;
817;SDS011;391;51.052;6.954;2023-08-21T06:29:28;9.30;;;8.40;;
817;SDS011;391;51.052;6.954;2023-08-21T06:31:31;8.50;;;7.77;;
817;SDS011;391;51.052;6.954;2023-08-21T06:33:35;8.20;;;7.10;;
817;SDS011;391;51.052;6.954;2023-08-21T06:35:39;8.63;;;7.50;;
817;SDS011;391;51.052;6.954;2023-08-21T06:37:43;8.93;;;8.00;;
817;SDS011;391;51.052;6.954;2023-08-21T06:39:49;9.00;;;8.20;;
817;SDS011;391;51.052;6.954;2023-08-21T06:41:52;9.77;;;8.67;;
817;SDS011;391;51.052;6.954;2023-08-21T06:44:03;10.57;;;9.67;;
817;SDS011;391;51.052;6.954;2023-08-21T06:46:09;10.87;;;9.43;;
817;SDS011;391;51.052;6.954;2023-08-21T06:48:13;14.07;;;10.63;;
817;SDS011;391;51.052;6.954;2023-08-21T06:50:17;11.53;;;10.53;;
817;SDS011;391;51.052;6.954;2023-08-21T06:52:19;11.50;;;10.37;;
817;SDS011;391;51.052;6.954;2023-08-21T06:54:23;12.90;;;11.80;;
817;SDS011;391;51.052;6.954;2023-08-21T06:56:27;11.77;;;10.67;;
817;SDS011;391;51.052;6.954;2023-08-21T06:58:31;13.70;;;12.40;;
817;SDS011;391;51.052;6.954;2023-08-21T07:00:34;14.20;;;11.10;;
817;SDS011;391;51.052;6.954;2023-08-21T07:02:38;13.87;;;12.00;;
817;SDS011;391;51.052;6.954;2023-08-21T07:04:42;13.13;;;10.97;;
817;SDS011;391;51.052;6.954;2023-08-21T07:06:45;13.03;;;10.10;;
817;SDS011;391;51.052;6.954;2023-08-21T07:08:48;15.00;;;11.57;;
817;SDS011;391;51.052;6.954;2023-08-21T07:10:52;12.97;;;11.63;;
817;SDS011;391;51.052;6.954;2023-08-21T07:12:57;13.93;;;12.57;;
817;SDS011;391;51.052;6.954;2023-08-21T07:15:00;12.30;;;11.20;;
817;SDS011;391;51.052;6.954;2023-08-21T07:17:04;12.27;;;11.20;;
817;SDS011;391;51.052;6.954;2023-08-21T07:19:07;12.97;;;11.87;;
817;SDS011;391;51.052;6.954;2023-08-21T07:21:11;12.20;;;11.07;;
817;SDS011;391;51.052;6.954;2023-08-21T07:23:33;12.40;;;10.73;;
817;SDS011;391;51.052;6.954;2023-08-21T07:25:39;13.87;;;11.40;;
817;SDS011;391;51.052;6.954;2023-08-21T07:27:43;10.90;;;9.90;;
817;SDS011;391;51.052;6.954;2023-08-21T07:29:47;11.13;;;9.90;;
817;SDS011;391;51.052;6.954;2023-08-21T07:31:51;13.17;;;11.87;;
817;SDS011;391;51.052;6.954;2023-08-21T07:33:55;11.23;;;10.20;;
817;SDS011;391;51.052;6.954;2023-08-21T07:35:59;10.30;;;9.30;;
817;SDS011;391;51.052;6.954;2023-08-21T07:38:03;10.20;;;8.80;;
817;SDS011;391;51.052;6.954;2023-08-21T07:40:07;8.60;;;7.90;;
817;SDS011;391;51.052;6.954;2023-08-21T07:42:11;12.03;;;10.90;;
817;SDS011;391;51.052;6.954;2023-08-21T07:44:15;9.60;;;8.70;;
817;SDS011;391;51.052;6.954;2023-08-21T07:46:19;12.67;;;9.60;;
817;SDS011;391;51.052;6.954;2023-08-21T07:48:23;12.57;;;9.17;;
817;SDS011;391;51.052;6.954;2023-08-21T07:50:27;11.10;;;9.80;;
817;SDS011;391;51.052;6.954;2023-08-21T07:52:29;9.93;;;8.93;;
817;SDS011;391;51.052;6.954;2023-08-21T07:54:33;11.87;;;10.40;;
817;SDS011;391;51.052;6.954;2023-08-21T07:56:37;11.50;;;10.50;;
817;SDS011;391;51.052;6.954;2023-08-21T07:58:43;10.30;;;8.67;;
817;SDS011;391;51.052;6.954;2023-08-21T08:00:47;9.37;;;8.33;;
817;SDS011;391;51.052;6.954;2023-08-21T08:02:52;10.00;;;7.90;;
817;SDS011;391;51.052;6.954;2023-08-21T08:04:55;9.53;;;8.37;;
817;SDS011;391;51.052;6.954;2023-08-21T08:06:59;8.83;;;8.13;;
817;SDS011;391;51.052;6.954;2023-08-21T08:09:02;10.77;;;8.20;;
817;SDS011;391;51.052;6.954;2023-08-21T08:11:05;9.40;;;8.57;;
817;SDS011;391;51.052;6.954;2023-08-21T08:13:09;7.80;;;7.10;;
817;SDS011;391;51.052;6.954;2023-08-21T08:15:12;8.67;;;7.87;;
817;SDS011;391;51.052;6.954;2023-08-21T08:17:16;8.57;;;7.87;;
817;SDS011;391;51.052;6.954;2023-08-21T08:19:21;8.83;;;8.00;;
817;SDS011;391;51.052;6.954;2023-08-21T08:21:24;8.00;;;7.00;;
817;SDS011;391;51.052;6.954;2023-08-21T08:23:27;9.77;;;8.87;;
817;SDS011;391;51.052;6.954;2023-08-21T08:25:31;8.37;;;7.77;;
817;SDS011;391;51.052;6.954;2023-08-21T08:27:35;9.37;;;8.57;;
817;SDS011;391;51.052;6.954;2023-08-21T08:29:39;11.00;;;9.67;;
817;SDS011;391;51.052;6.954;2023-08-21T08:31:42;8.90;;;8.03;;
817;SDS011;391;51.052;6.954;2023-08-21T08:33:46;11.30;;;10.30;;
817;SDS011;391;51.052;6.954;2023-08-21T08:35:51;15.17;;;11.60;;
817;SDS011;391;51.052;6.954;2023-08-21T08:37:55;10.53;;;9.50;;
817;SDS011;391;51.052;6.954;2023-08-21T08:39:58;13.43;;;10.57;;
817;SDS011;391;51.052;6.954;2023-08-21T08:42:02;13.50;;;10.60;;
817;SDS011;391;51.052;6.954;2023-08-21T08:44:08;11.90;;;10.87;;
817;SDS011;391;51.052;6.954;2023-08-21T08:46:13;13.60;;;10.70;;
817;SDS011;391;51.052;6.954;2023-08-21T08:48:16;12.00;;;10.90;;
817;SDS011;391;51.052;6.954;2023-08-21T08:50:22;11.50;;;10.07;;
817;SDS011;391;51.052;6.954;2023-08-21T08:52:28;11.00;;;9.10;;
817;SDS011;391;51.052;6.954;2023-08-21T08:54:33;9.27;;;8.57;;
817;SDS011;391;51.052;6.954;2023-08-21T08:56:39;9.50;;;8.57;;
817;SDS011;391;51.052;6.954;2023-08-21T08:58:43;12.10;;;10.27;;
817;SDS011;391;51.052;6.954;2023-08-21T09:00:46;9.40;;;8.70;;
817;SDS011;391;51.052;6.954;2023-08-21T09:02:50;11.90;;;10.10;;
817;SDS011;391;51.052;6.954;2023-08-21T09:04:53;12.80;;;11.60;;
817;SDS011;391;51.052;6.954;2023-08-21T09:07:05;14.27;;;12.93;;
817;SDS011;391;51.052;6.954;2023-08-21T09:09:10;10.23;;;9.27;;
817;SDS011;391;51.052;6.954;2023-08-21T09:11:15;10.07;;;9.07;;
817;SDS011;391;51.052;6.954;2023-08-21T09:13:20;12.27;;;11.10;;
817;SDS011;391;51.052;6.954;2023-08-21T09:15:27;11.83;;;10.57;;
817;SDS011;391;51.052;6.954;2023-08-21T09:17:42;11.00;;;9.90;;
817;SDS011;391;51.052;6.954;2023-08-21T09:19:45;11.43;;;10.23;;
817;SDS011;391;51.052;6.954;2023-08-21T09:21:49;10.37;;;9.37;;
817;SDS011;391;51.052;6.954;2023-08-21T09:23:56;13.83;;;11.00;;
817;SDS011;391;51.052;6.954;2023-08-21T09:26:02;13.00;;;8.90;;
817;SDS011;391;51.052;6.954;2023-08-21T09:28:06;10.40;;;9.50;;
817;SDS011;391;51.052;6.954;2023-08-21T09:30:11;11.53;;;10.53;;
817;SDS011;391;51.052;6.954;2023-08-21T09:32:16;15.30;;;13.77;;
817;SDS011;391;51.052;6.954;2023-08-21T09:34:20;13.63;;;12.33;;
817;SDS011;391;51.052;6.954;2023-08-21T09:36:23;14.00;;;12.60;;
817;SDS011;391;51.052;6.954;2023-08-21T09:38:27;14.50;;;13.10;;
817;SDS011;391;51.052;6.954;2023-08-21T09:40:31;14.27;;;12.57;;
817;SDS011;391;51.052;6.954;2023-08-21T09:42:35;13.93;;;11.87;;
817;SDS011;391;51.052;6.954;2023-08-21T09:44:39;12.50;;;11.30;;
817;SDS011;391;51.052;6.954;2023-08-21T09:46:46;13.27;;;11.93;;
817;SDS011;391;51.052;6.954;2023-08-21T09:48:53;12.13;;;11.03;;
817;SDS011;391;51.052;6.954;2023-08-21T09:50:57;12.93;;;11.80;;
817;SDS011;391;51.052;6.954;2023-08-21T09:53:01;14.77;;;13.37;;
817;SDS011;391;51.052;6.954;2023-08-21T09:55:05;12.17;;;11.13;;
817;SDS011;391;51.052;6.954;2023-08-21T09:57:09;14.73;;;13.23;;
817;SDS011;391;51.052;6.954;2023-08-21T09:59:16;14.10;;;12.70;;
817;SDS011;391;51.052;6.954;2023-08-21T10:01:20;14.53;;;13.17;;
817;SDS011;391;51.052;6.954;2023-08-21T10:03:24;12.67;;;11.40;;
817;SDS011;391;51.052;6.954;2023-08-21T10:05:29;12.47;;;11.27;;
817;SDS011;391;51.052;6.954;2023-08-21T10:07:34;11.93;;;10.53;;
817;SDS011;391;51.052;6.954;2023-08-21T10:09:39;13.07;;;11.77;;
817;SDS011;391;51.052;6.954;2023-08-21T10:11:44;12.93;;;11.63;;
817;SDS011;391;51.052;6.954;2023-08-21T10:13:48;13.77;;;11.73;;
817;SDS011;391;51.052;6.954;2023-08-21T10:15:54;14.33;;;12.73;;
817;SDS011;391;51.052;6.954;2023-08-21T10:17:58;13.57;;;12.27;;
817;SDS011;391;51.052;6.954;2023-08-21T10:20:02;16.90;;;15.23;;
817;SDS011;391;51.052;6.954;2023-08-21T10:22:06;14.90;;;13.57;;
817;SDS011;391;51.052;6.954;2023-08-21T10:24:10;12.17;;;11.13;;
817;SDS011;391;51.052;6.954;2023-08-21T10:26:13;11.50;;;10.50;;
817;SDS011;391;51.052;6.954;2023-08-21T10:28:17;11.30;;;9.87;;
817;SDS011;391;51.052;6.954;2023-08-21T10:30:21;12.10;;;10.97;;
817;SDS011;391;51.052;6.954;2023-08-21T10:32:27;13.90;;;12.53;;
817;SDS011;391;51.052;6.954;2023-08-21T10:34:31;15.90;;;14.57;;
817;SDS011;391;51.052;6.954;2023-08-21T10:39:14;13.40;;;12.20;;
817;SDS011;391;51.052;6.954;2023-08-21T10:41:25;12.07;;;10.77;;
817;SDS011;391;51.052;6.954;2023-08-21T10:43:38;10.77;;;8.97;;
817;SDS011;391;51.052;6.954;2023-08-21T10:45:53;12.13;;;10.87;;
817;SDS011;391;51.052;6.954;2023-08-21T10:47:59;12.70;;;11.57;;
817;SDS011;391;51.052;6.954;2023-08-21T10:50:03;12.43;;;11.43;;
817;SDS011;391;51.052;6.954;2023-08-21T10:52:09;10.40;;;9.50;;
817;SDS011;391;51.052;6.954;2023-08-21T10:54:12;9.90;;;8.97;;
817;SDS011;391;51.052;6.954;2023-08-21T10:56:16;12.70;;;9.40;;
817;SDS011;391;51.052;6.954;2023-08-21T10:58:19;9.70;;;8.93;;
817;SDS011;391;51.052;6.954;2023-08-21T11:00:23;10.70;;;9.10;;
817;SDS011;391;51.052;6.954;2023-08-21T11:02:27;9.67;;;8.67;;
817;SDS011;391;51.052;6.954;2023-08-21T11:04:40;8.63;;;8.00;;
817;SDS011;391;51.052;6.954;2023-08-21T11:06:46;8.77;;;7.93;;
817;SDS011;391;51.052;6.954;2023-08-21T11:08:54;11.43;;;9.07;;
817;SDS011;391;51.052;6.954;2023-08-21T11:10:57;9.63;;;8.40;;
817;SDS011;391;51.052;6.954;2023-08-21T11:13:01;10.60;;;8.60;;
817;SDS011;391;51.052;6.954;2023-08-21T11:15:06;9.77;;;8.93;;
817;SDS011;391;51.052;6.954;2023-08-21T11:17:10;9.70;;;8.80;;
817;SDS011;391;51.052;6.954;2023-08-21T11:19:14;8.93;;;8.03;;
817;SDS011;391;51.052;6.954;2023-08-21T11:21:19;8.70;;;7.90;;
817;SDS011;391;51.052;6.954;2023-08-21T11:23:22;9.40;;;8.50;;
817;SDS011;391;51.052;6.954;2023-08-21T11:25:37;9.67;;;8.87;;
817;SDS011;391;51.052;6.954;2023-08-21T11:27:42;8.50;;;7.80;;
817;SDS011;391;51.052;6.954;2023-08-21T11:29:46;8.80;;;7.90;;
817;SDS011;391;51.052;6.954;2023-08-21T11:31:51;8.50;;;6.77;;
817;SDS011;391;51.052;6.954;2023-08-21T11:33:55;7.33;;;6.70;;
817;SDS011;391;51.052;6.954;2023-08-21T11:36:06;10.00;;;8.37;;
817;SDS011;391;51.052;6.954;2023-08-21T11:38:15;9.47;;;8.53;;
817;SDS011;391;51.052;6.954;2023-08-21T11:40:19;9.70;;;8.90;;
817;SDS011;391;51.052;6.954;2023-08-21T11:42:29;9.13;;;7.60;;
817;SDS011;391;51.052;6.954;2023-08-21T11:44:39;9.13;;;8.23;;
817;SDS011;391;51.052;6.954;2023-08-21T11:46:42;8.57;;;7.87;;
817;SDS011;391;51.052;6.954;2023-08-21T11:48:45;9.70;;;8.73;;
817;SDS011;391;51.052;6.954;2023-08-21T11:50:49;10.40;;;9.30;;
817;SDS011;391;51.052;6.954;2023-08-21T11:52:52;9.57;;;8.67;;
817;SDS011;391;51.052;6.954;2023-08-21T11:54:57;9.37;;;8.57;;
817;SDS011;391;51.052;6.954;2023-08-21T11:57:03;9.80;;;9.00;;
817;SDS011;391;51.052;6.954;2023-08-21T11:59:07;10.00;;;9.00;;
817;SDS011;391;51.052;6.954;2023-08-21T12:01:11;9.13;;;8.27;;
817;SDS011;391;51.052;6.954;2023-08-21T12:03:19;9.40;;;8.50;;
817;SDS011;391;51.052;6.954;2023-08-21T12:05:23;8.80;;;8.00;;
817;SDS011;391;51.052;6.954;2023-08-21T12:07:26;8.53;;;7.63;;
817;SDS011;391;51.052;6.954;2023-08-21T12:09:30;8.27;;;7.53;;
817;SDS011;391;51.052;6.954;2023-08-21T12:11:36;9.63;;;8.67;;
817;SDS011;391;51.052;6.954;2023-08-21T12:13:40;9.73;;;8.77;;
817;SDS011;391;51.052;6.954;2023-08-21T12:15:44;8.53;;;7.83;;
817;SDS011;391;51.052;6.954;2023-08-21T12:17:47;9.10;;;8.40;;
817;SDS011;391;51.052;6.954;2023-08-21T12:19:51;7.97;;;7.37;;
817;SDS011;391;51.052;6.954;2023-08-21T12:21:55;9.30;;;8.00;;
817;SDS011;391;51.052;6.954;2023-08-21T12:24:00;7.47;;;6.87;;
817;SDS011;391;51.052;6.954;2023-08-21T12:26:03;9.17;;;7.53;;
817;SDS011;391;51.052;6.954;2023-08-21T12:28:08;7.40;;;6.50;;
817;SDS011;391;51.052;6.954;2023-08-21T12:30:12;7.00;;;5.53;;
817;SDS011;391;51.052;6.954;2023-08-21T12:32:15;8.27;;;7.03;;
817;SDS011;391;51.052;6.954;2023-08-21T12:34:19;8.50;;;7.70;;
817;SDS011;391;51.052;6.954;2023-08-21T12:36:22;13.10;;;7.37;;
817;SDS011;391;51.052;6.954;2023-08-21T12:38:26;7.63;;;6.87;;
817;SDS011;391;51.052;6.954;2023-08-21T12:40:31;8.60;;;6.83;;
817;SDS011;391;51.052;6.954;2023-08-21T12:42:34;6.13;;;5.60;;
817;SDS011;391;51.052;6.954;2023-08-21T12:44:39;7.30;;;6.10;;
817;SDS011;391;51.052;6.954;2023-08-21T12:46:43;6.90;;;5.70;;
817;SDS011;391;51.052;6.954;2023-08-21T12:48:47;5.80;;;5.30;;
817;SDS011;391;51.052;6.954;2023-08-21T12:50:50;5.43;;;4.93;;
817;SDS011;391;51.052;6.954;2023-08-21T12:52:54;6.47;;;5.77;;
817;SDS011;391;51.052;6.954;2023-08-21T12:54:57;7.40;;;6.07;;
817;SDS011;391;51.052;6.954;2023-08-21T12:57:01;6.63;;;6.00;;
817;SDS011;391;51.052;6.954;2023-08-21T12:59:04;6.67;;;6.03;;
817;SDS011;391;51.052;6.954;2023-08-21T13:01:09;5.43;;;4.93;;
817;SDS011;391;51.052;6.954;2023-08-21T13:03:13;6.20;;;5.60;;
817;SDS011;391;51.052;6.954;2023-08-21T13:05:17;6.20;;;5.10;;
817;SDS011;391;51.052;6.954;2023-08-21T13:07:20;6.70;;;6.00;;
817;SDS011;391;51.052;6.954;2023-08-21T13:09:24;6.70;;;6.07;;
817;SDS011;391;51.052;6.954;2023-08-21T13:11:28;7.93;;;5.30;;
817;SDS011;391;51.052;6.954;2023-08-21T13:13:32;6.47;;;5.03;;
817;SDS011;391;51.052;6.954;2023-08-21T13:15:36;9.57;;;5.20;;